createdAt,value
2023-01-09T00:01:28.295Z,3.70
2023-01-09T00:03:56.448Z,3.70
2023-01-09T00:06:24.638Z,3.70
2023-01-09T00:08:52.943Z,3.60
2023-01-09T00:11:21.066Z,3.60
2023-01-09T00:13:49.214Z,3.60
2023-01-09T00:16:19.402Z,3.60
2023-01-09T00:18:47.623Z,3.70
2023-01-09T00:21:15.956Z,3.80
2023-01-09T00:23:44.051Z,3.70
2023-01-09T00:26:17.009Z,3.60
2023-01-09T00:28:45.895Z,3.60
2023-01-09T00:31:14.704Z,3.60
2023-01-09T00:33:46.654Z,3.60
2023-01-09T00:36:14.935Z,3.50
2023-01-09T00:38:43.022Z,3.20
2023-01-09T00:41:16.849Z,3.20
2023-01-09T00:43:48.044Z,3.20
2023-01-09T00:46:17.619Z,3.40
2023-01-09T00:48:48.233Z,3.60
2023-01-09T00:51:17.230Z,3.70
2023-01-09T00:53:45.799Z,3.70
2023-01-09T00:56:17.307Z,3.70
2023-01-09T00:58:45.970Z,3.80
2023-01-09T01:01:14.520Z,4.20
2023-01-09T01:03:42.735Z,4.00
2023-01-09T01:06:30.394Z,4.00
2023-01-09T01:08:58.458Z,3.90
2023-01-09T01:11:26.908Z,3.90
2023-01-09T01:13:55.352Z,3.80
2023-01-09T01:16:23.624Z,3.80
2023-01-09T01:18:51.774Z,3.90
2023-01-09T01:21:21.281Z,3.80
2023-01-09T01:23:49.341Z,3.80
2023-01-09T01:26:18.258Z,3.80
2023-01-09T01:28:46.358Z,3.80
2023-01-09T01:31:19.645Z,3.70
2023-01-09T01:33:47.795Z,3.70
2023-01-09T01:36:17.575Z,3.70
2023-01-09T01:38:47.879Z,3.90
2023-01-09T01:41:29.479Z,3.80
2023-01-09T01:43:59.774Z,3.80
2023-01-09T01:46:28.009Z,3.80
2023-01-09T01:49:00.951Z,3.80
2023-01-09T01:51:31.902Z,3.80
2023-01-09T01:54:04.821Z,4.00
2023-01-09T01:56:38.849Z,3.90
2023-01-09T01:59:10.973Z,3.80
2023-01-09T02:01:41.969Z,3.80
2023-01-09T02:04:10.823Z,3.70
2023-01-09T02:06:39.451Z,3.70
2023-01-09T02:09:09.645Z,3.70
2023-01-09T02:11:37.677Z,3.80
2023-01-09T02:14:05.786Z,3.90
2023-01-09T02:16:54.295Z,3.80
2023-01-09T02:19:55.344Z,3.70
2023-01-09T02:22:36.965Z,3.60
2023-01-09T02:25:36.337Z,3.40
2023-01-09T02:28:38.314Z,3.30
2023-01-09T02:31:14.515Z,3.20
2023-01-09T02:33:51.272Z,3.30
2023-01-09T02:36:27.221Z,3.30
2023-01-09T02:39:08.891Z,3.40
2023-01-09T02:41:43.624Z,3.40
2023-01-09T02:44:30.542Z,3.40
2023-01-09T02:47:06.267Z,3.50
2023-01-09T02:49:36.715Z,3.60
2023-01-09T02:52:25.764Z,3.60
2023-01-09T02:55:04.937Z,3.80
2023-01-09T02:57:51.787Z,3.80
2023-01-09T03:00:33.214Z,3.80
2023-01-09T03:03:08.711Z,3.90
2023-01-09T03:05:44.616Z,3.90
2023-01-09T03:08:16.936Z,4.00
2023-01-09T03:10:53.094Z,4.00
2023-01-09T03:13:24.964Z,4.00
2023-01-09T03:15:55.440Z,4.00
2023-01-09T03:18:29.042Z,4.20
2023-01-09T03:20:57.385Z,4.30
2023-01-09T03:23:25.668Z,4.20
2023-01-09T03:25:53.989Z,4.20
2023-01-09T03:28:28.028Z,4.20
2023-01-09T03:30:56.660Z,4.20
2023-01-09T03:33:26.472Z,4.10
2023-01-09T03:35:55.050Z,4.10
2023-01-09T03:38:23.389Z,4.00
2023-01-09T03:40:51.612Z,4.00
2023-01-09T03:43:19.804Z,4.10
2023-01-09T03:45:47.972Z,4.10
2023-01-09T03:48:16.119Z,4.10
2023-01-09T03:50:47.359Z,4.30
2023-01-09T03:53:15.902Z,4.30
2023-01-09T03:55:46.766Z,4.30
2023-01-09T03:58:15.436Z,4.30
2023-01-09T04:00:45.966Z,4.40
2023-01-09T04:03:14.346Z,4.30
2023-01-09T04:05:42.818Z,4.40
2023-01-09T04:08:12.346Z,4.30
2023-01-09T04:10:41.010Z,4.20
2023-01-09T04:13:09.109Z,4.10
2023-01-09T04:15:37.139Z,4.00
2023-01-09T04:18:05.532Z,4.00
2023-01-09T04:20:33.946Z,4.00
2023-01-09T04:23:02.020Z,4.10
2023-01-09T04:25:31.579Z,4.10
2023-01-09T04:27:59.690Z,4.30
2023-01-09T04:30:27.932Z,4.50
2023-01-09T04:32:55.985Z,4.70
2023-01-09T04:35:24.716Z,5.00
2023-01-09T04:37:52.759Z,5.20
2023-01-09T04:40:21.084Z,5.50
2023-01-09T04:42:50.591Z,5.50
2023-01-09T04:45:18.755Z,5.60
2023-01-09T04:47:47.863Z,5.50
2023-01-09T04:50:16.109Z,5.60
2023-01-09T04:52:44.323Z,5.60
2023-01-09T04:55:12.587Z,5.50
2023-01-09T04:57:40.612Z,5.40
2023-01-09T05:00:12.461Z,5.50
2023-01-09T05:02:41.869Z,5.30
2023-01-09T05:05:11.825Z,5.40
2023-01-09T05:07:40.529Z,5.30
2023-01-09T05:10:10.052Z,5.20
2023-01-09T05:12:39.666Z,5.30
2023-01-09T05:15:10.553Z,5.40
2023-01-09T05:17:38.697Z,5.40
2023-01-09T05:20:07.645Z,5.40
2023-01-09T05:22:35.718Z,5.30
2023-01-09T05:25:03.885Z,5.50
2023-01-09T05:27:31.992Z,5.70
2023-01-09T05:30:00.105Z,5.60
2023-01-09T05:32:29.524Z,5.80
2023-01-09T05:34:57.648Z,5.70
2023-01-09T05:37:25.743Z,5.90
2023-01-09T05:39:53.865Z,6.20
2023-01-09T05:42:21.928Z,6.50
2023-01-09T05:44:49.995Z,7.00
2023-01-09T05:47:18.217Z,6.90
2023-01-09T05:49:47.675Z,7.00
2023-01-09T05:52:15.923Z,7.00
2023-01-09T05:54:44.020Z,6.90
2023-01-09T05:57:12.139Z,7.00
2023-01-09T05:59:40.314Z,7.10
2023-01-09T06:02:08.468Z,7.00
2023-01-09T06:04:36.598Z,6.80
2023-01-09T06:07:06.071Z,7.00
2023-01-09T06:09:34.439Z,7.00
2023-01-09T06:12:02.761Z,7.00
2023-01-09T06:14:30.917Z,6.90
2023-01-09T06:16:59.100Z,6.90
2023-01-09T06:19:27.193Z,6.80
2023-01-09T06:21:55.273Z,6.60
2023-01-09T06:24:24.691Z,6.70
2023-01-09T06:26:52.859Z,6.70
2023-01-09T06:29:24.073Z,6.60
2023-01-09T06:31:52.152Z,6.60
2023-01-09T06:34:20.179Z,6.80
2023-01-09T06:36:48.353Z,6.70
2023-01-09T06:39:16.400Z,6.80
2023-01-09T06:41:48.392Z,6.70
2023-01-09T06:44:16.988Z,6.70
2023-01-09T06:46:45.107Z,6.70
2023-01-09T06:49:13.250Z,6.60
2023-01-09T06:51:41.306Z,6.70
2023-01-09T06:54:09.313Z,6.70
2023-01-09T06:56:37.392Z,6.70
2023-01-09T06:59:06.828Z,6.50
2023-01-09T07:01:34.996Z,6.60
2023-01-09T07:04:05.329Z,6.50
2023-01-09T07:06:33.807Z,6.40
2023-01-09T07:09:01.881Z,6.40
2023-01-09T07:11:29.937Z,6.40
2023-01-09T07:13:57.987Z,6.40
2023-01-09T07:16:27.565Z,6.40
2023-01-09T07:18:55.718Z,6.30
2023-01-09T07:21:23.862Z,6.20
2023-01-09T07:23:51.982Z,6.20
2023-01-09T07:26:20.085Z,6.20
2023-01-09T07:28:48.159Z,6.20
2023-01-09T07:31:16.310Z,6.10
2023-01-09T07:33:45.760Z,6.20
2023-01-09T07:36:13.890Z,6.20
2023-01-09T07:38:41.929Z,6.10
2023-01-09T07:41:10.089Z,6.10
2023-01-09T07:43:38.796Z,6.10
2023-01-09T07:46:07.555Z,6.10
2023-01-09T07:48:35.684Z,6.20
2023-01-09T07:51:06.203Z,6.10
2023-01-09T07:53:34.355Z,6.10
2023-01-09T07:56:02.430Z,5.90
2023-01-09T07:58:30.549Z,5.70
2023-01-09T08:00:58.658Z,5.70
2023-01-09T08:03:26.906Z,5.80
2023-01-09T08:05:55.050Z,5.60
2023-01-09T08:08:24.619Z,5.40
2023-01-09T08:10:52.802Z,5.30
2023-01-09T08:13:20.847Z,5.10
2023-01-09T08:15:48.982Z,5.10
2023-01-09T08:18:17.128Z,5.10
2023-01-09T08:20:45.228Z,5.10
2023-01-09T08:23:13.358Z,5.10
2023-01-09T08:25:43.030Z,5.10
2023-01-09T08:28:11.376Z,5.00
2023-01-09T08:30:39.521Z,5.00
2023-01-09T08:33:07.669Z,4.90
2023-01-09T08:35:35.813Z,4.90
2023-01-09T08:38:04.352Z,4.90
2023-01-09T08:40:32.554Z,4.80
2023-01-09T08:43:19.595Z,4.80
2023-01-09T08:46:06.165Z,4.80
2023-01-09T08:48:34.211Z,4.80
2023-01-09T08:51:02.403Z,4.70
2023-01-09T08:53:31.540Z,4.80
2023-01-09T08:56:00.089Z,4.80
2023-01-09T08:58:30.064Z,4.80
2023-01-09T09:00:58.922Z,4.90
2023-01-09T09:03:27.117Z,5.00
2023-01-09T09:05:55.273Z,5.10
2023-01-09T09:08:23.425Z,5.10
2023-01-09T09:10:51.526Z,5.10
2023-01-09T09:13:19.579Z,5.30
2023-01-09T09:15:49.114Z,5.40
2023-01-09T09:18:17.256Z,5.40
2023-01-09T09:20:45.362Z,5.60
2023-01-09T09:23:13.428Z,5.60
2023-01-09T09:25:41.512Z,5.70
2023-01-09T09:28:10.873Z,5.60
2023-01-09T09:30:39.898Z,5.60
2023-01-09T09:33:09.366Z,5.60
2023-01-09T09:35:38.172Z,5.60
2023-01-09T09:38:06.804Z,5.60
2023-01-09T09:40:45.641Z,5.70
2023-01-09T09:43:46.851Z,5.70
2023-01-09T09:46:24.932Z,5.70
2023-01-09T09:48:57.901Z,5.70
2023-01-09T09:51:51.181Z,5.80
2023-01-09T09:54:25.410Z,5.80
2023-01-09T09:56:57.800Z,5.70
2023-01-09T09:59:29.327Z,5.70
2023-01-09T10:02:00.649Z,5.70
2023-01-09T10:04:34.664Z,5.70
2023-01-09T10:07:09.256Z,5.70
2023-01-09T10:09:47.756Z,5.70
2023-01-09T10:12:28.107Z,5.70
2023-01-09T10:14:58.590Z,5.70
2023-01-09T10:18:02.891Z,5.70
2023-01-09T10:20:51.251Z,5.70
2023-01-09T10:23:39.508Z,5.70
2023-01-09T10:26:17.836Z,5.70
2023-01-09T10:29:04.210Z,5.70
2023-01-09T10:31:41.788Z,5.80
2023-01-09T10:34:31.230Z,5.80
2023-01-09T10:37:08.580Z,5.90
2023-01-09T10:39:42.240Z,5.90
2023-01-09T10:42:19.282Z,5.90
2023-01-09T10:44:55.358Z,5.90
2023-01-09T10:47:27.095Z,6.00
2023-01-09T10:49:56.974Z,6.00
2023-01-09T10:52:34.660Z,6.00
2023-01-09T10:55:06.135Z,6.00
2023-01-09T10:57:42.436Z,6.00
2023-01-09T11:00:21.023Z,6.00
2023-01-09T11:02:50.839Z,6.10
2023-01-09T11:05:21.943Z,6.10
2023-01-09T11:07:56.447Z,6.10
2023-01-09T11:10:24.604Z,6.10
2023-01-09T11:13:12.884Z,6.20
2023-01-09T11:15:41.307Z,6.20
2023-01-09T11:18:28.237Z,6.20
2023-01-09T11:20:56.381Z,6.30
2023-01-09T11:23:31.353Z,6.30
2023-01-09T11:26:02.342Z,6.40
2023-01-09T11:28:30.964Z,6.40
2023-01-09T11:31:01.272Z,6.40
2023-01-09T11:33:31.596Z,6.40
2023-01-09T11:36:04.117Z,6.40
2023-01-09T11:38:47.605Z,6.40
2023-01-09T11:41:20.157Z,6.40
2023-01-09T11:43:50.424Z,6.40
2023-01-09T11:46:37.519Z,6.40
2023-01-09T11:49:20.905Z,6.40
2023-01-09T11:52:12.745Z,6.40
2023-01-09T11:54:45.882Z,6.40
2023-01-09T11:57:14.156Z,6.40
2023-01-09T11:59:42.289Z,6.50
2023-01-09T12:02:37.719Z,6.50
2023-01-09T12:05:18.458Z,6.50
2023-01-09T12:08:11.673Z,6.60
2023-01-09T12:11:00.584Z,6.60
2023-01-09T12:13:42.676Z,6.60
2023-01-09T12:16:20.213Z,6.60
2023-01-09T12:19:02.466Z,6.60
2023-01-09T12:21:35.967Z,6.60
2023-01-09T12:24:19.024Z,6.60
2023-01-09T12:26:57.300Z,6.60
2023-01-09T12:29:38.618Z,6.60
2023-01-09T12:32:29.212Z,6.60
2023-01-09T12:35:05.619Z,6.60
2023-01-09T12:37:55.009Z,6.70
2023-01-09T12:40:35.977Z,6.70
2023-01-09T12:43:12.758Z,6.70
2023-01-09T12:45:51.030Z,6.70
2023-01-09T12:48:33.442Z,6.70
2023-01-09T12:51:23.843Z,6.70
2023-01-09T12:53:58.313Z,6.70
2023-01-09T12:56:33.091Z,6.70
2023-01-09T12:59:10.990Z,6.70
2023-01-09T13:01:45.780Z,6.70
2023-01-09T13:04:18.559Z,6.80
2023-01-09T13:06:51.689Z,6.80
2023-01-09T13:09:26.914Z,6.70
2023-01-09T13:12:04.340Z,6.70
2023-01-09T13:14:45.881Z,6.70
2023-01-09T13:17:19.629Z,6.70
2023-01-09T13:19:47.846Z,6.70
2023-01-09T13:22:18.134Z,6.70
2023-01-09T13:25:05.892Z,6.80
2023-01-09T13:27:39.390Z,6.70
2023-01-09T13:30:21.305Z,6.70
2023-01-09T13:32:59.214Z,6.70
2023-01-09T13:35:27.441Z,6.70
2023-01-09T13:37:55.632Z,6.70
2023-01-09T13:40:32.944Z,6.60
2023-01-09T13:43:04.039Z,6.70
2023-01-09T13:45:34.973Z,6.70
2023-01-09T13:48:26.814Z,6.60
2023-01-09T13:51:15.006Z,6.70
2023-01-09T13:53:47.885Z,6.60
2023-01-09T13:56:16.414Z,6.60
2023-01-09T13:59:05.482Z,6.60
2023-01-09T14:01:47.438Z,6.60
2023-01-09T14:04:38.693Z,6.60
2023-01-09T14:07:22.287Z,6.60
2023-01-09T14:10:00.232Z,6.60
2023-01-09T14:12:30.500Z,6.60
2023-01-09T14:15:02.110Z,6.60
2023-01-09T14:17:35.453Z,6.50
2023-01-09T14:20:08.241Z,6.50
2023-01-09T14:22:46.126Z,6.40
2023-01-09T14:25:27.836Z,6.30
2023-01-09T14:28:20.507Z,6.30
2023-01-09T14:31:10.749Z,6.20
2023-01-09T14:33:40.289Z,6.30
2023-01-09T14:36:16.527Z,6.50
2023-01-09T14:38:47.020Z,6.40
2023-01-09T14:41:46.845Z,6.40
2023-01-09T14:44:26.705Z,6.30
2023-01-09T14:46:56.808Z,6.40
2023-01-09T14:49:34.476Z,6.30
2023-01-09T14:52:09.357Z,6.30
2023-01-09T14:54:41.856Z,6.20
2023-01-09T14:57:25.916Z,6.40
2023-01-09T15:00:01.571Z,6.40
2023-01-09T15:02:33.665Z,6.50
2023-01-09T15:05:06.634Z,6.40
2023-01-09T15:07:40.999Z,6.40
2023-01-09T15:10:16.017Z,6.30
2023-01-09T15:12:46.498Z,6.30
2023-01-09T15:15:17.207Z,6.30
2023-01-09T15:17:48.927Z,6.20
2023-01-09T15:20:24.999Z,6.10
2023-01-09T15:22:55.237Z,6.10
2023-01-09T15:25:37.516Z,6.20
2023-01-09T15:28:25.233Z,6.10
2023-01-09T15:31:02.213Z,6.10
2023-01-09T15:33:30.983Z,6.40
2023-01-09T15:36:03.605Z,6.30
2023-01-09T15:38:36.007Z,6.10
2023-01-09T15:41:10.379Z,6.20
2023-01-09T15:43:42.377Z,6.10
2023-01-09T15:46:12.301Z,6.10
2023-01-09T15:48:40.622Z,6.00
2023-01-09T15:51:14.334Z,6.00
2023-01-09T15:53:43.662Z,5.80
2023-01-09T15:56:19.601Z,5.90
2023-01-09T15:58:49.147Z,5.70
2023-01-09T16:01:32.727Z,5.50
2023-01-09T16:04:07.243Z,5.60
2023-01-09T16:06:38.663Z,5.50
2023-01-09T16:09:17.347Z,5.60
2023-01-09T16:11:49.549Z,5.70
2023-01-09T16:14:21.815Z,5.80
2023-01-09T16:16:51.929Z,5.90
2023-01-09T16:19:31.380Z,6.00
2023-01-09T16:22:02.872Z,5.90
2023-01-09T16:24:40.074Z,6.20
2023-01-09T16:27:30.715Z,6.10
2023-01-09T16:30:00.433Z,6.10
2023-01-09T16:32:30.867Z,6.20
2023-01-09T16:35:02.302Z,6.10
2023-01-09T16:37:33.588Z,6.10
2023-01-09T16:40:36.201Z,6.10
2023-01-09T16:43:05.127Z,5.90
2023-01-09T16:45:35.586Z,5.80
2023-01-09T16:48:10.943Z,5.90
2023-01-09T16:50:40.165Z,5.90
2023-01-09T16:53:16.140Z,5.80
2023-01-09T16:55:44.987Z,5.80
2023-01-09T16:58:18.287Z,5.80
2023-01-09T17:00:47.847Z,5.80
2023-01-09T17:03:17.215Z,5.70
2023-01-09T17:05:45.465Z,5.70
2023-01-09T17:08:22.347Z,5.70
2023-01-09T17:10:50.802Z,5.60
2023-01-09T17:13:19.208Z,5.50
2023-01-09T17:15:48.003Z,5.70
2023-01-09T17:18:17.462Z,5.70
2023-01-09T17:20:48.537Z,5.50
2023-01-09T17:23:18.319Z,5.60
2023-01-09T17:26:03.853Z,5.60
2023-01-09T17:28:35.781Z,5.50
2023-01-09T17:31:06.541Z,5.40
2023-01-09T17:33:35.320Z,5.50
2023-01-09T17:36:04.738Z,5.50
2023-01-09T17:38:34.195Z,5.50
2023-01-09T17:41:02.314Z,5.50
2023-01-09T17:43:32.066Z,5.40
2023-01-09T17:46:00.466Z,5.50
2023-01-09T17:48:28.640Z,5.40
2023-01-09T17:50:57.055Z,5.40
2023-01-09T17:53:25.574Z,5.40
2023-01-09T17:55:55.167Z,5.30
2023-01-09T17:58:29.033Z,5.40
2023-01-09T18:00:57.798Z,5.30
2023-01-09T18:03:31.051Z,5.30
2023-01-09T18:05:59.355Z,5.30
2023-01-09T18:08:27.622Z,5.20
2023-01-09T18:10:57.312Z,5.20
2023-01-09T18:13:25.424Z,5.20
2023-01-09T18:15:53.727Z,5.20
2023-01-09T18:18:22.539Z,5.20
2023-01-09T18:20:51.238Z,5.20
2023-01-09T18:23:19.389Z,5.00
2023-01-09T18:25:47.811Z,5.00
2023-01-09T18:28:18.540Z,4.80
2023-01-09T18:30:48.074Z,4.90
2023-01-09T18:33:17.540Z,4.70
2023-01-09T18:35:46.650Z,4.80
2023-01-09T18:38:15.630Z,4.70
2023-01-09T18:40:44.239Z,4.80
2023-01-09T18:43:12.659Z,4.80
2023-01-09T18:45:42.432Z,4.70
2023-01-09T18:48:15.597Z,4.70
2023-01-09T18:50:45.678Z,4.80
2023-01-09T18:53:14.329Z,4.50
2023-01-09T18:55:42.575Z,4.40
2023-01-09T18:58:10.827Z,4.60
2023-01-09T19:00:41.313Z,4.60
2023-01-09T19:03:14.995Z,4.50
2023-01-09T19:05:43.172Z,4.50
2023-01-09T19:08:11.333Z,4.40
2023-01-09T19:10:39.597Z,4.30
2023-01-09T19:13:07.825Z,4.30
2023-01-09T19:15:36.041Z,4.40
2023-01-09T19:18:04.367Z,4.40
2023-01-09T19:20:34.015Z,4.40
2023-01-09T19:23:02.481Z,4.30
2023-01-09T19:25:30.740Z,4.20
2023-01-09T19:28:00.355Z,4.30
2023-01-09T19:30:28.659Z,4.30
2023-01-09T19:32:56.820Z,4.20
2023-01-09T19:35:24.934Z,4.20
2023-01-09T19:37:54.546Z,4.30
2023-01-09T19:40:22.968Z,4.40
2023-01-09T19:42:53.578Z,4.50
2023-01-09T19:45:21.933Z,4.40
2023-01-09T19:47:50.407Z,4.30
2023-01-09T19:50:19.790Z,4.40
2023-01-09T19:52:48.473Z,4.30
2023-01-09T19:55:18.378Z,4.30
2023-01-09T19:57:46.803Z,4.20
2023-01-09T20:00:15.984Z,4.40
2023-01-09T20:02:44.296Z,4.30
2023-01-09T20:05:12.625Z,4.30
2023-01-09T20:07:41.895Z,4.30
2023-01-09T20:10:14.080Z,4.20
2023-01-09T20:12:45.527Z,4.10
2023-01-09T20:15:14.903Z,4.10
2023-01-09T20:17:43.864Z,4.10
2023-01-09T20:20:13.281Z,4.00
2023-01-09T20:22:41.578Z,4.00
2023-01-09T20:25:11.067Z,4.00
2023-01-09T20:27:39.426Z,3.80
2023-01-09T20:30:10.700Z,3.70
2023-01-09T20:32:38.955Z,3.80
2023-01-09T20:35:07.939Z,3.80
2023-01-09T20:37:36.241Z,3.70
2023-01-09T20:40:04.800Z,3.80
2023-01-09T20:42:33.094Z,3.80
2023-01-09T20:45:01.271Z,3.80
2023-01-09T20:47:31.083Z,3.90
2023-01-09T20:49:59.540Z,3.90
2023-01-09T20:52:27.985Z,3.80
2023-01-09T20:54:56.348Z,3.80
2023-01-09T20:57:24.771Z,3.80
2023-01-09T20:59:52.987Z,3.80
2023-01-09T21:02:22.367Z,3.90
2023-01-09T21:04:53.152Z,3.90
2023-01-09T21:07:21.299Z,3.80
2023-01-09T21:09:49.400Z,3.80
2023-01-09T21:12:27.780Z,3.80
2023-01-09T21:14:56.414Z,3.80
2023-01-09T21:17:24.728Z,3.80
2023-01-09T21:19:54.310Z,3.80
2023-01-09T21:22:22.531Z,3.90
2023-01-09T21:24:51.514Z,3.90
2023-01-09T21:27:20.461Z,3.90
2023-01-09T21:29:48.574Z,4.00
2023-01-09T21:32:16.755Z,3.90
2023-01-09T21:34:45.052Z,3.90
2023-01-09T21:37:14.922Z,3.90
2023-01-09T21:39:43.205Z,3.80
2023-01-09T21:42:29.591Z,3.70
2023-01-09T21:45:15.389Z,3.70
2023-01-09T21:47:43.604Z,3.60
2023-01-09T21:50:12.257Z,3.70
2023-01-09T21:52:41.938Z,3.70
2023-01-09T21:55:10.656Z,3.60
2023-01-09T21:57:38.817Z,3.50
2023-01-09T22:00:08.308Z,3.50
2023-01-09T22:02:41.113Z,3.60
2023-01-09T22:05:09.515Z,3.50
2023-01-09T22:07:37.763Z,3.50
2023-01-09T22:10:08.647Z,3.40
2023-01-09T22:12:36.850Z,3.30
2023-01-09T22:15:05.783Z,3.30
2023-01-09T22:17:33.949Z,3.30
2023-01-09T22:20:02.076Z,3.20
2023-01-09T22:22:30.283Z,3.20
2023-01-09T22:24:59.265Z,3.20
2023-01-09T22:27:28.910Z,3.30
2023-01-09T22:29:57.027Z,3.40
2023-01-09T22:32:25.303Z,3.50
2023-01-09T22:34:53.408Z,3.50
2023-01-09T22:37:21.617Z,3.50
2023-01-09T22:39:49.752Z,3.50
2023-01-09T22:42:17.831Z,3.60
2023-01-09T22:44:47.384Z,3.50
2023-01-09T22:47:15.625Z,3.50
2023-01-09T22:49:52.901Z,3.50
2023-01-09T22:52:21.431Z,3.50
2023-01-09T22:54:49.972Z,3.60
2023-01-09T22:57:18.028Z,3.60
2023-01-09T22:59:47.600Z,3.70
2023-01-09T23:02:15.777Z,3.70
2023-01-09T23:04:43.921Z,3.70
2023-01-09T23:07:12.070Z,3.80
2023-01-09T23:09:40.246Z,3.70
2023-01-09T23:12:08.718Z,3.80
2023-01-09T23:14:39.714Z,3.70
2023-01-09T23:17:10.815Z,3.80
2023-01-09T23:19:40.456Z,3.80
2023-01-09T23:22:08.918Z,3.80
2023-01-09T23:24:37.102Z,3.80
2023-01-09T23:27:05.548Z,3.80
2023-01-09T23:29:33.681Z,3.80
2023-01-09T23:32:08.608Z,3.80
2023-01-09T23:34:36.669Z,3.90
2023-01-09T23:37:08.892Z,3.90
2023-01-09T23:39:37.127Z,3.90
2023-01-09T23:42:22.703Z,3.80
2023-01-09T23:44:50.860Z,3.80
2023-01-09T23:47:20.275Z,3.70
2023-01-09T23:49:48.450Z,3.80
2023-01-09T23:52:16.558Z,3.80
2023-01-09T23:54:44.758Z,3.80
2023-01-09T23:57:12.940Z,3.80
2023-01-09T23:59:41.175Z,3.70
